Terminal Aerodrome Forecast
Issued by NWS

Home | Current Version | Previous Version | Text Only | Print | Product List | Glossary On
Versions: 1 2 3 4 5 6 7 8 9 10 11 12 13 14 15 16 17 18 19 20 21 22
326
FTUS43 KEAX 150525
TAFMKC
TAF
KMKC 150525Z 1506/1606 08004KT P6SM OVC035
     FM150900 09007KT 5SM -FZRA BR OVC007
     FM151500 07007KT 4SM -FZRA BR OVC003
     FM151800 07005KT 3SM -RA BR OVC003
      TEMPO 1518/1522 3SM -FZRA BR
     FM152200 09010KT 2SM -RA BR OVC003=

USA.gov is the U.S. government's official web portal to all federal, state and local government web resources and services.